Time;durP1;ratioP1;P1;durP2;ratioP2;P2;SDS_P1;SDS_P2;PMS_P1;PMS_P2;Temp;Humidity;BMP_temperature;BMP_pressure;BME280_temperature;BME280_humidity;BME280_pressure;Samples;Min_cycle;Max_cycle;Signal;HPM_P1;HPM_P2
2021/12/19 00:02:43;;;;;;;12.60;2.00;;;;;;;22.83;53.53;100546.00;7311335;19;129657;-33
2021/12/19 00:10:36;;;;;;;28.35;3.75;;;;;;;22.81;52.50;100534.78;7312333;19;129227;-32
2021/12/19 00:13:02;;;;;;;22.35;3.92;;;;;;;22.80;52.79;100533.13;7310745;19;157635;-36
2021/12/19 00:15:27;;;;;;;14.32;2.40;;;;;;;22.80;52.90;100533.13;7311842;19;129748;-32
2021/12/19 00:17:52;;;;;;;1.98;0.73;;;;;;;22.82;52.88;100531.22;7312168;19;129216;-41
2021/12/19 00:20:18;;;;;;;13.55;2.17;;;;;;;22.85;52.75;100528.34;7310752;19;130168;-34
2021/12/19 00:22:43;;;;;;;23.10;3.03;;;;;;;22.81;53.22;100529.53;7311873;19;129711;-36
2021/12/19 00:25:08;;;;;;;11.75;2.00;;;;;;;22.82;53.10;100523.38;7309977;19;154749;-31
2021/12/19 00:27:34;;;;;;;15.95;2.65;;;;;;;22.81;52.96;100513.81;7307361;19;154388;-39
2021/12/19 00:29:59;;;;;;;17.08;2.97;;;;;;;22.81;53.32;100525.13;7311009;19;130190;-33
2021/12/19 00:32:24;;;;;;;13.10;1.98;;;;;;;22.84;52.87;100518.84;7309608;19;159581;-32
2021/12/19 00:34:51;;;;;;;12.50;1.83;;;;;;;22.80;53.11;100523.50;7310850;19;147891;-34
2021/12/19 00:37:19;;;;;;;6.95;1.27;;;;;;;22.76;53.44;100521.22;7310974;19;129322;-37
2021/12/19 00:39:44;;;;;;;22.75;3.42;;;;;;;22.78;52.72;100519.31;7310661;19;129633;-37
2021/12/19 00:42:09;;;;;;;3.88;0.90;;;;;;;22.80;53.41;100509.53;7309684;19;159190;-34
2021/12/19 00:44:37;;;;;;;22.15;3.08;;;;;;;22.76;53.02;100510.72;7311270;19;129240;-35
2021/12/19 00:47:07;;;;;;;12.80;2.20;;;;;;;22.76;52.61;100511.56;7309318;19;129593;-38
2021/12/19 00:49:34;;;;;;;22.65;3.25;;;;;;;22.76;53.59;100501.09;7311116;19;129049;-33
2021/12/19 00:52:01;;;;;;;14.05;2.13;;;;;;;22.77;53.34;100496.69;7309490;19;131257;-32
2021/12/19 00:54:26;;;;;;;15.27;2.47;;;;;;;22.76;53.39;100500.25;7311442;19;128828;-35
2021/12/19 00:56:51;;;;;;;14.25;2.30;;;;;;;22.80;53.18;100499.03;7309589;19;129419;-34
2021/12/19 00:59:17;;;;;;;8.30;1.48;;;;;;;22.77;53.22;100494.06;7312295;19;129710;-37
2021/12/19 01:01:44;;;;;;;16.70;2.42;;;;;;;22.76;53.44;100489.75;7311024;19;130319;-34
2021/12/19 01:04:13;;;;;;;15.15;2.55;;;;;;;22.72;53.15;100488.34;7310837;19;129779;-34
2021/12/19 01:06:39;;;;;;;17.25;2.45;;;;;;;22.71;53.36;100482.28;7310034;19;129057;-34
2021/12/19 01:09:06;;;;;;;;;;;;;;;22.77;54.80;100488.81;7309235;19;132544;-36
2021/12/19 01:11:33;;;;;;;22.35;3.35;;;;;;;22.75;53.47;100494.19;7310677;19;129134;-37
2021/12/19 01:13:58;;;;;;;16.42;2.60;;;;;;;22.79;53.34;100486.91;7311237;19;129754;-33
2021/12/19 01:16:24;;;;;;;13.43;1.98;;;;;;;22.78;53.08;100482.59;7309152;19;128985;-36
2021/12/19 01:18:49;;;;;;;11.70;1.88;;;;;;;22.79;53.17;100492.16;7311906;19;129108;-35
2021/12/19 01:21:15;;;;;;;12.20;2.05;;;;;;;22.81;53.17;100487.59;7310459;19;129387;-33
2021/12/19 01:23:40;;;;;;;30.35;4.05;;;;;;;22.75;53.29;100475.00;7310973;19;128985;-35
2021/12/19 01:26:06;;;;;;;16.77;3.03;;;;;;;22.76;53.44;100476.66;7308558;19;129262;-38
2021/12/19 01:28:31;;;;;;;19.13;2.92;;;;;;;22.75;53.31;100472.38;7310080;19;129429;-30
2021/12/19 01:30:56;;;;;;;11.65;2.05;;;;;;;22.75;52.67;100477.63;7309869;19;142314;-35
2021/12/19 01:33:22;;;;;;;11.63;2.05;;;;;;;22.74;52.98;100486.44;7310404;19;129660;-39
2021/12/19 01:35:47;;;;;;;13.15;1.83;;;;;;;22.73;53.18;100476.91;7309376;19;128923;-32
2021/12/19 01:38:13;;;;;;;16.65;2.40;;;;;;;22.74;53.14;100475.97;7308951;19;158100;-43
2021/12/19 01:40:39;;;;;;;25.97;3.80;;;;;;;22.75;53.33;100472.38;7309317;19;129631;-32
2021/12/19 01:43:04;;;;;;;11.98;2.22;;;;;;;22.73;53.16;100464.63;7311115;19;129099;-37
2021/12/19 01:45:40;;;;;;;15.35;2.20;;;;;;;22.72;53.81;100460.38;7308919;19;129191;-30
2021/12/19 01:48:09;;;;;;;12.35;2.15;;;;;;;22.72;53.01;100456.91;7306715;19;129360;-31
2021/12/19 01:50:35;;;;;;;21.65;3.05;;;;;;;22.75;53.13;100452.25;7308314;19;132859;-36
2021/12/19 01:53:04;;;;;;;12.83;2.37;;;;;;;22.75;53.33;100454.88;7309841;19;129814;-41
2021/12/19 01:55:29;;;;;;;20.35;2.83;;;;;;;22.75;53.12;100454.03;7308690;19;129534;-36
2021/12/19 01:57:55;;;;;;;11.25;1.83;;;;;;;22.72;52.96;100446.41;7308123;19;147615;-36
2021/12/19 02:00:27;;;;;;;11.52;1.83;;;;;;;22.73;53.66;100438.44;7309815;19;129510;-39
2021/12/19 02:02:54;;;;;;;5.45;1.00;;;;;;;22.70;53.57;100437.84;7308844;19;129455;-38
2021/12/19 02:05:21;;;;;;;8.68;1.35;;;;;;;22.71;53.26;100429.84;7308582;19;130002;-34
2021/12/19 02:07:47;;;;;;;20.08;3.03;;;;;;;22.74;53.15;100418.28;7306793;19;129708;-32
2021/12/19 02:10:16;;;;;;;15.27;2.58;;;;;;;22.73;53.29;100421.84;7308190;19;129337;-35
2021/12/19 02:12:42;;;;;;;22.75;3.33;;;;;;;22.74;52.86;100413.88;7309234;19;129437;-30
2021/12/19 02:15:08;;;;;;;16.43;2.70;;;;;;;22.67;52.83;100406.66;7308810;19;129364;-32
2021/12/19 02:17:33;;;;;;;15.60;2.35;;;;;;;22.72;53.21;100414.97;7309369;19;130564;-34
2021/12/19 02:19:58;;;;;;;16.25;3.03;;;;;;;22.71;53.17;100426.41;7308051;19;130286;-36
2021/12/19 02:22:24;;;;;;;13.10;2.08;;;;;;;22.70;53.45;100417.72;7312354;19;155553;-32
2021/12/19 02:24:49;;;;;;;11.98;1.80;;;;;;;22.68;53.64;100424.03;7314223;19;154329;-30
2021/12/19 02:27:14;;;;;;;5.68;1.17;;;;;;;22.70;53.38;100411.63;7313326;19;158845;-36
2021/12/19 02:29:40;;;;;;;23.58;3.60;;;;;;;22.71;53.21;100413.31;7316013;19;129504;-36
2021/12/19 02:32:06;;;;;;;14.57;2.28;;;;;;;22.73;52.98;100408.75;7315220;19;129613;-32
2021/12/19 02:34:38;;;;;;;19.67;2.67;;;;;;;22.69;53.43;100409.97;7315553;19;128992;-39
2021/12/19 02:37:12;;;;;;;9.43;1.85;;;;;;;22.69;53.42;100410.78;7313993;19;130393;-34
2021/12/19 02:40:08;;;;;;;21.63;3.35;;;;;;;22.67;53.29;100412.72;7314755;19;129583;-38
2021/12/19 02:48:13;;;;;;;10.57;1.83;;;;;;;22.65;53.25;100398.06;7313580;19;128933;-34
2021/12/19 02:50:49;;;;;;;24.92;3.25;;;;;;;22.65;53.30;100393.66;7314485;19;129179;-38
2021/12/19 02:53:20;;;;;;;8.93;1.40;;;;;;;22.58;53.77;100365.47;7314766;19;129019;-37
2021/12/19 02:55:45;;;;;;;17.48;2.67;;;;;;;22.68;53.42;100376.84;7313633;19;129365;-33
2021/12/19 02:58:11;;;;;;;9.25;1.45;;;;;;;22.67;52.86;100375.19;7315363;19;129690;-34
2021/12/19 03:00:38;;;;;;;19.33;2.72;;;;;;;22.69;52.99;100360.19;7313363;19;129095;-40
2021/12/19 03:03:03;;;;;;;;;;;;;;;22.62;55.09;100353.78;7314781;19;129800;-35
2021/12/19 03:05:32;;;;;;;19.88;3.05;;;;;;;22.63;52.95;100347.56;7313655;19;129079;-33
2021/12/19 03:07:57;;;;;;;16.92;2.63;;;;;;;22.66;53.10;100352.56;7312950;19;129505;-36
2021/12/19 03:18:16;;;;;;;14.25;2.30;;;;;;;22.68;54.46;100329.66;7315361;19;129390;-33
2021/12/19 03:20:43;;;;;;;20.25;3.08;;;;;;;22.65;53.25;100325.53;7313302;19;129412;-31
2021/12/19 03:23:11;;;;;;;15.95;2.63;;;;;;;22.65;53.31;100330.75;7313801;19;129228;-29
2021/12/19 03:25:37;;;;;;;18.80;2.75;;;;;;;22.65;53.00;100325.53;7313055;19;129475;-33
2021/12/19 03:28:04;;;;;;;11.25;1.95;;;;;;;22.66;53.65;100328.97;7312434;19;131787;-33
2021/12/19 03:30:31;;;;;;;14.88;2.33;;;;;;;22.63;53.73;100321.34;7313049;19;130508;-31
2021/12/19 03:32:57;;;;;;;16.02;2.55;;;;;;;22.66;53.57;100310.63;7312658;19;129436;-37
2021/12/19 03:35:27;;;;;;;12.67;1.97;;;;;;;22.62;53.07;100309.22;7312291;19;128981;-35
2021/12/19 03:37:52;;;;;;;21.67;2.83;;;;;;;22.65;53.81;100298.47;7314763;19;130503;-36
2021/12/19 03:40:24;;;;;;;8.65;1.45;;;;;;;22.66;53.52;100300.16;7312769;19;130903;-35
2021/12/19 03:42:52;;;;;;;16.33;2.17;;;;;;;22.61;53.71;100287.41;7315129;19;130071;-29
2021/12/19 03:45:20;;;;;;;14.75;2.35;;;;;;;22.61;53.93;100287.41;7312454;19;129506;-31
2021/12/19 03:47:46;;;;;;;23.23;3.75;;;;;;;22.65;53.06;100293.22;7311380;19;133442;-31
2021/12/19 03:50:17;;;;;;;11.47;1.83;;;;;;;22.67;53.76;100286.06;7313269;19;130287;-33
2021/12/19 03:52:42;;;;;;;22.55;2.97;;;;;;;22.62;53.18;100277.75;7314307;19;129068;-34
2021/12/19 03:55:08;;;;;;;13.68;2.05;;;;;;;22.56;53.55;100270.44;7311591;19;154006;-28
2021/12/19 03:57:33;;;;;;;15.32;2.28;;;;;;;22.62;53.46;100285.63;7313069;19;129066;-33
2021/12/19 03:59:58;;;;;;;11.80;1.98;;;;;;;22.60;53.24;100280.53;7312387;19;131207;-38
2021/12/19 04:02:26;;;;;;;10.80;1.90;;;;;;;22.66;53.70;100268.69;7312322;19;129626;-31
2021/12/19 04:04:54;;;;;;;14.57;2.17;;;;;;;22.59;53.70;100288.50;7312576;19;129555;-30
2021/12/19 04:07:19;;;;;;;13.85;2.13;;;;;;;22.35;53.18;100280.03;7312160;19;131142;-39
2021/12/19 04:09:45;;;;;;;23.63;3.03;;;;;;;22.23;53.47;100283.69;7311576;19;129497;-39
2021/12/19 04:12:10;;;;;;;18.40;2.67;;;;;;;22.19;53.67;100274.41;7312478;19;129276;-41
2021/12/19 04:14:36;;;;;;;16.92;2.50;;;;;;;22.18;54.12;100278.00;7315648;19;130458;-35
2021/12/19 04:17:01;;;;;;;13.10;2.45;;;;;;;22.13;54.52;100270.50;7311782;19;155227;-39
2021/12/19 04:19:27;;;;;;;21.38;3.42;;;;;;;22.12;54.69;100278.50;7315549;19;130844;-38
2021/12/19 04:21:53;;;;;;;12.37;1.87;;;;;;;22.11;53.77;100263.75;7315580;19;129738;-36
2021/12/19 04:24:18;;;;;;;13.05;2.08;;;;;;;22.06;54.10;100265.91;7314535;19;129019;-38
2021/12/19 04:26:43;;;;;;;16.45;2.67;;;;;;;22.03;54.51;100253.06;7312366;19;153995;-38
2021/12/19 04:29:10;;;;;;;13.63;2.25;;;;;;;22.02;54.28;100238.31;7315097;19;131560;-36
2021/12/19 04:31:35;;;;;;;23.10;3.42;;;;;;;21.98;54.54;100241.19;7314995;19;130115;-38
2021/12/19 04:34:00;;;;;;;10.95;2.03;;;;;;;22.03;54.33;100237.38;7313142;19;128885;-38
2021/12/19 04:36:31;;;;;;;15.63;2.40;;;;;;;22.00;54.05;100237.63;7312180;19;158234;-37
2021/12/19 04:42:05;;;;;;;19.77;3.00;;;;;;;21.98;53.69;100239.53;7315617;19;129115;-38
2021/12/19 04:52:57;;;;;;;19.75;3.08;;;;;;;21.96;53.98;100243.09;7316615;19;129231;-35
2021/12/19 04:55:41;;;;;;;13.70;1.98;;;;;;;22.00;54.10;100248.09;7314084;19;129564;-38
2021/12/19 04:58:22;;;;;;;11.70;1.90;;;;;;;22.00;54.19;100222.72;7314999;19;130277;-37
2021/12/19 05:01:05;;;;;;;12.38;1.90;;;;;;;21.92;54.18;100215.53;7314147;19;130649;-37
2021/12/19 05:03:42;;;;;;;18.48;2.50;;;;;;;22.05;54.65;100235.47;7314976;19;128977;-38
2021/12/19 05:14:22;;;;;;;10.75;1.92;;;;;;;22.42;54.01;100218.31;7313679;19;129488;-37
2021/12/19 05:16:49;;;;;;;18.10;2.72;;;;;;;22.51;53.37;100239.31;7311112;19;129887;-37
2021/12/19 05:19:42;;;;;;;16.00;3.13;;;;;;;22.53;53.80;100226.97;7312759;19;131013;-38
2021/12/19 05:22:07;;;;;;;17.05;2.75;;;;;;;22.52;53.36;100229.69;7312525;19;130470;-35
2021/12/19 05:24:47;;;;;;;17.45;2.45;;;;;;;22.58;53.38;100234.41;7308890;19;155000;-31
2021/12/19 05:27:12;;;;;;;13.70;1.95;;;;;;;22.56;53.55;100220.63;7309028;19;129334;-36
2021/12/19 05:29:38;;;;;;;16.15;2.53;;;;;;;22.55;53.34;100238.16;7310497;19;130089;-35
2021/12/19 05:32:05;;;;;;;12.45;2.13;;;;;;;22.53;53.47;100210.41;7311066;19;130736;-34
2021/12/19 05:34:30;;;;;;;15.93;2.42;;;;;;;22.54;53.20;100205.06;7309280;19;129289;-32
2021/12/19 05:45:14;;;;;;;8.02;1.50;;;;;;;22.53;53.12;100232.19;7311021;19;129739;-31
2021/12/19 05:47:51;;;;;;;17.95;2.50;;;;;;;22.50;54.33;100236.84;7307906;19;129024;-31
2021/12/19 05:50:20;;;;;;;;;;;;;;;22.52;54.91;100240.16;7309776;19;129099;-34
2021/12/19 05:52:47;;;;;;;22.08;3.22;;;;;;;22.52;53.80;100248.03;7308446;19;130932;-36
2021/12/19 05:55:13;;;;;;;12.68;2.03;;;;;;;22.55;53.69;100242.53;7311139;19;129096;-32
2021/12/19 05:57:39;;;;;;;24.73;3.43;;;;;;;22.51;53.49;100244.56;7316274;19;129916;-31
2021/12/19 06:00:07;;;;;;;15.25;2.42;;;;;;;22.56;53.31;100244.22;7314897;19;137048;-39
2021/12/19 06:02:32;;;;;;;18.15;2.75;;;;;;;22.54;53.79;100233.88;7317973;19;130016;-38
2021/12/19 06:04:57;;;;;;;22.30;3.33;;;;;;;22.58;53.83;100242.28;7316631;19;147271;-38
2021/12/19 06:07:23;;;;;;;18.27;3.08;;;;;;;22.53;53.88;100236.59;7317306;19;154021;-37
2021/12/19 06:09:48;;;;;;;20.30;2.72;;;;;;;22.56;53.15;100231.13;7317080;19;130305;-36
2021/12/19 06:12:13;;;;;;;11.77;2.03;;;;;;;22.54;53.58;100235.66;7316765;19;159167;-37
2021/12/19 06:14:38;;;;;;;12.60;2.10;;;;;;;22.52;53.07;100229.69;7317709;19;128951;-38
2021/12/19 06:17:04;;;;;;;30.33;4.88;;;;;;;22.51;53.33;100230.66;7313782;19;129482;-38
2021/12/19 06:19:30;;;;;;;20.42;2.83;;;;;;;22.43;53.61;100225.22;7317826;19;129415;-38
2021/12/19 06:21:56;;;;;;;28.83;3.92;;;;;;;22.50;53.46;100221.94;7318660;19;130672;-39
2021/12/19 06:24:21;;;;;;;11.60;1.92;;;;;;;22.54;53.50;100222.56;7316714;19;129295;-38
2021/12/19 06:26:46;;;;;;;14.60;1.90;;;;;;;22.55;53.13;100229.44;7314700;19;140039;-37
2021/12/19 06:29:12;;;;;;;18.58;3.40;;;;;;;22.56;53.24;100228.50;7314656;19;158583;-36
2021/12/19 06:31:37;;;;;;;19.95;2.80;;;;;;;22.51;53.24;100220.97;7316105;19;130245;-39
2021/12/19 06:34:03;;;;;;;13.00;1.88;;;;;;;22.45;53.89;100212.81;7317442;19;129473;-38
2021/12/19 06:36:28;;;;;;;12.07;2.25;;;;;;;22.47;53.98;100214.34;7313925;19;154046;-37
2021/12/19 06:38:53;;;;;;;27.45;3.45;;;;;;;22.47;53.85;100210.91;7316199;19;157640;-38
2021/12/19 06:41:20;;;;;;;16.90;2.60;;;;;;;22.48;53.48;100218.63;7315680;19;154925;-36
2021/12/19 06:43:45;;;;;;;27.08;3.83;;;;;;;22.51;53.57;100217.56;7315694;19;129414;-34
2021/12/19 06:46:10;;;;;;;11.25;1.85;;;;;;;22.49;53.26;100215.06;7315637;19;129164;-37
2021/12/19 06:48:37;;;;;;;15.90;2.42;;;;;;;22.47;54.00;100221.38;7314667;19;132528;-34
2021/12/19 06:51:02;;;;;;;22.83;3.67;;;;;;;22.50;54.09;100215.88;7315602;19;130411;-37
2021/12/19 06:53:28;;;;;;;19.30;2.53;;;;;;;22.51;53.11;100209.69;7314732;19;129092;-36
2021/12/19 06:55:53;;;;;;;24.40;3.00;;;;;;;22.43;53.91;100193.78;7312202;19;129485;-37
2021/12/19 06:58:18;;;;;;;13.05;1.88;;;;;;;22.46;53.54;100196.16;7315195;19;148277;-30
2021/12/19 07:00:44;;;;;;;14.73;2.13;;;;;;;22.45;53.98;100199.72;7311801;19;153452;-37
2021/12/19 07:03:11;;;;;;;20.05;2.92;;;;;;;22.47;53.71;100190.78;7312623;19;153430;-37
2021/12/19 07:05:37;;;;;;;21.13;3.25;;;;;;;22.48;53.17;100196.81;7311863;19;129377;-38
2021/12/19 07:08:04;;;;;;;13.70;2.03;;;;;;;22.45;54.07;100194.47;7311218;19;129106;-32
2021/12/19 07:10:29;;;;;;;;;;;;;;;22.49;54.93;100188.84;7312638;19;130886;-31
2021/12/19 07:12:54;;;;;;;19.40;2.57;;;;;;;22.48;53.32;100186.34;7313218;19;131004;-32
2021/12/19 07:15:24;;;;;;;17.50;2.47;;;;;;;22.46;53.40;100188.28;7311858;19;154628;-31
2021/12/19 07:17:49;;;;;;;15.45;2.28;;;;;;;22.46;54.15;100196.16;7312171;19;131286;-32
2021/12/19 07:20:14;;;;;;;18.33;2.78;;;;;;;22.45;53.48;100181.38;7311180;19;158838;-33
2021/12/19 07:22:39;;;;;;;21.30;2.65;;;;;;;22.46;53.71;100183.03;7311868;19;144524;-31
2021/12/19 07:25:05;;;;;;;15.65;2.47;;;;;;;22.47;53.31;100189.94;7311205;19;129635;-36
2021/12/19 07:27:30;;;;;;;18.95;2.67;;;;;;;22.42;54.07;100176.38;7312394;19;129892;-38
2021/12/19 07:29:57;;;;;;;26.50;3.63;;;;;;;22.45;53.70;100176.13;7310690;19;158575;-38
2021/12/19 07:32:23;;;;;;;11.82;1.70;;;;;;;22.47;53.60;100176.84;7311875;19;129431;-39
2021/12/19 07:34:50;;;;;;;30.47;4.43;;;;;;;22.41;53.65;100170.31;7312313;19;129103;-31
2021/12/19 07:37:15;;;;;;;15.25;2.15;;;;;;;22.44;53.62;100179.72;7309123;19;130275;-38
2021/12/19 07:39:52;;;;;;;14.55;1.83;;;;;;;22.45;53.64;100176.13;7312394;19;130465;-30
2021/12/19 07:42:17;;;;;;;20.27;2.73;;;;;;;22.46;53.41;100167.31;7311518;19;129885;-31
2021/12/19 07:44:43;;;;;;;14.18;2.15;;;;;;;22.43;53.93;100163.16;7310672;19;129085;-34
2021/12/19 07:47:08;;;;;;;24.40;3.63;;;;;;;22.47;54.11;100163.72;7306954;19;155607;-34
2021/12/19 07:49:34;;;;;;;19.27;2.88;;;;;;;22.45;53.81;100160.41;7308962;19;158198;-36
2021/12/19 07:52:01;;;;;;;21.92;3.25;;;;;;;22.43;54.00;100157.91;7311201;19;128870;-31
2021/12/19 07:54:26;;;;;;;19.98;2.72;;;;;;;22.42;53.81;100155.44;7309575;19;129135;-35
2021/12/19 07:56:52;;;;;;;25.35;3.05;;;;;;;22.45;53.53;100161.25;7305664;19;158514;-35
2021/12/19 07:59:17;;;;;;;15.23;2.45;;;;;;;22.47;53.56;100153.25;7309401;19;131245;-32
2021/12/19 08:01:43;;;;;;;13.32;2.00;;;;;;;22.33;53.74;100143.13;7309744;19;129366;-34
2021/12/19 08:04:09;;;;;;;35.38;4.88;;;;;;;22.37;54.05;100147.13;7310627;19;129758;-31
2021/12/19 08:06:34;;;;;;;24.45;3.60;;;;;;;22.43;53.98;100151.88;7309552;19;129749;-36
2021/12/19 08:09:07;;;;;;;28.17;4.53;;;;;;;22.43;53.69;100162.34;7306176;19;130985;-34
2021/12/19 08:11:42;;;;;;;26.73;3.75;;;;;;;22.38;53.79;100135.72;7308891;19;129755;-34
2021/12/19 08:14:10;;;;;;;26.08;3.63;;;;;;;22.43;53.83;100142.19;7307763;19;129907;-35
2021/12/19 08:16:36;;;;;;;33.03;4.82;;;;;;;22.43;53.68;100152.69;7306957;19;130902;-31
2021/12/19 08:19:01;;;;;;;24.88;4.07;;;;;;;22.35;53.90;100128.94;7308239;19;129831;-37
2021/12/19 08:21:26;;;;;;;29.33;3.78;;;;;;;22.41;54.05;100138.06;7306573;19;128954;-42
2021/12/19 08:23:52;;;;;;;28.95;4.55;;;;;;;22.39;53.76;100132.13;7306240;19;154200;-36
2021/12/19 08:26:17;;;;;;;26.70;3.40;;;;;;;22.41;53.70;100122.34;7304254;19;131588;-33
2021/12/19 08:28:43;;;;;;;26.60;4.07;;;;;;;22.42;53.00;100118.75;7305221;19;129780;-39
2021/12/19 08:31:08;;;;;;;35.20;4.67;;;;;;;22.39;52.60;100121.66;7305226;19;154899;-31
2021/12/19 08:33:34;;;;;;;27.08;3.70;;;;;;;22.42;51.61;100113.50;7306396;19;155452;-36
2021/12/19 08:35:59;;;;;;;20.38;2.97;;;;;;;22.43;51.47;100113.38;7304901;19;158806;-36
2021/12/19 08:38:25;;;;;;;29.50;4.18;;;;;;;22.43;51.14;100105.50;7305159;19;158825;-32
2021/12/19 08:40:51;;;;;;;26.60;3.72;;;;;;;22.43;50.90;100116.00;7307382;19;129133;-35
2021/12/19 08:43:17;;;;;;;16.23;2.50;;;;;;;22.38;51.61;100112.94;7307348;19;130198;-35
2021/12/19 08:45:43;;;;;;;38.60;5.17;;;;;;;22.41;52.35;100117.09;7305325;19;130096;-36
2021/12/19 08:48:08;;;;;;;28.70;4.75;;;;;;;22.48;52.28;100112.97;7306846;19;130089;-37
2021/12/19 08:50:33;;;;;;;20.88;3.35;;;;;;;22.50;52.20;100111.06;7305295;19;152391;-33
2021/12/19 08:52:59;;;;;;;36.83;5.25;;;;;;;22.57;51.07;100104.34;7305619;19;129442;-33
2021/12/19 08:55:24;;;;;;;16.95;2.55;;;;;;;22.53;51.45;100103.78;7305805;19;134567;-34
2021/12/19 08:57:50;;;;;;;32.45;5.20;;;;;;;22.47;49.04;100103.47;7306181;19;129550;-35
2021/12/19 09:00:18;;;;;;;35.88;5.53;;;;;;;22.50;46.27;100082.22;7306165;19;129075;-31
2021/12/19 09:02:46;;;;;;;24.52;4.18;;;;;;;22.52;47.40;100088.19;7307311;19;129509;-35
2021/12/19 09:05:13;;;;;;;26.85;4.50;;;;;;;22.55;46.46;100098.41;7305818;19;131435;-38
2021/12/19 09:07:38;;;;;;;40.70;5.82;;;;;;;22.56;46.16;100100.91;7304226;19;130195;-37
2021/12/19 09:10:06;;;;;;;29.98;4.30;;;;;;;22.56;47.76;100094.84;7306160;19;128868;-43
2021/12/19 09:12:31;;;;;;;27.55;4.47;;;;;;;22.60;47.25;100093.59;7306381;19;130091;-35
2021/12/19 09:14:56;;;;;;;34.10;4.95;;;;;;;22.50;48.56;100093.56;7303910;19;158636;-36
2021/12/19 09:17:22;;;;;;;41.13;5.25;;;;;;;22.53;47.90;100100.34;7306814;19;131676;-31
2021/12/19 09:19:47;;;;;;;24.67;3.75;;;;;;;22.45;48.29;100071.31;7304629;19;130580;-32
2021/12/19 09:22:12;;;;;;;15.73;2.97;;;;;;;22.48;49.06;100081.53;7300882;19;133132;-37
2021/12/19 09:24:38;;;;;;;37.85;5.45;;;;;;;22.53;49.10;100090.69;7303825;19;159064;-42
2021/12/19 09:27:07;;;;;;;20.88;3.83;;;;;;;22.52;49.60;100077.69;7304289;19;129754;-36
2021/12/19 09:29:33;;;;;;;34.80;5.07;;;;;;;22.43;49.63;100081.13;7301603;19;129350;-38
2021/12/19 09:31:59;;;;;;;41.83;5.43;;;;;;;22.35;49.99;100081.78;7313883;19;129701;-38
2021/12/19 09:34:26;;;;;;;23.55;3.65;;;;;;;22.35;50.02;100071.28;7312025;19;130045;-38
2021/12/19 09:36:52;;;;;;;31.45;4.45;;;;;;;22.31;50.41;100053.38;7310128;19;130101;-39
2021/12/19 09:39:18;;;;;;;27.25;4.07;;;;;;;22.36;51.08;100061.66;7311597;19;155104;-35
2021/12/19 09:41:45;;;;;;;17.40;3.00;;;;;;;22.44;50.40;100053.97;7313638;19;130839;-37
2021/12/19 09:44:13;;;;;;;31.35;4.70;;;;;;;22.33;51.14;100041.78;7312293;19;129396;-33
2021/12/19 09:46:41;;;;;;;27.60;3.92;;;;;;;22.41;50.87;100055.03;7311677;19;129951;-38
2021/12/19 09:49:09;;;;;;;19.02;3.13;;;;;;;22.39;51.17;100046.50;7310777;19;129251;-36
2021/12/19 09:51:35;;;;;;;25.13;4.10;;;;;;;22.34;51.59;100037.38;7305789;19;130984;-38
2021/12/19 09:54:01;;;;;;;22.67;3.87;;;;;;;22.38;51.28;100041.41;7308923;19;130314;-37
2021/12/19 09:56:27;;;;;;;31.75;5.38;;;;;;;22.29;51.29;100026.47;7309661;19;129911;-35
2021/12/19 09:58:53;;;;;;;28.08;4.60;;;;;;;22.39;51.12;100041.25;7311592;19;129061;-39
2021/12/19 10:01:19;;;;;;;22.05;3.70;;;;;;;22.36;51.13;100038.09;7312350;19;129677;-41
2021/12/19 10:03:44;;;;;;;38.65;6.07;;;;;;;22.30;51.36;100025.50;7310984;19;129935;-37
2021/12/19 10:06:24;;;;;;;25.25;4.05;;;;;;;22.39;52.15;100029.94;7309468;19;159166;-35
2021/12/19 10:09:15;;;;;;;20.27;3.92;;;;;;;22.42;51.92;100022.66;7310355;19;129519;-36
2021/12/19 10:14:35;;;;;;;25.00;3.80;;;;;;;22.40;53.19;100015.88;7310511;19;129476;-38
2021/12/19 10:17:07;;;;;;;29.95;4.20;;;;;;;22.39;50.94;100009.81;7310402;19;130144;-40
2021/12/19 10:19:47;;;;;;;33.75;4.88;;;;;;;22.37;52.25;100000.44;7308974;19;130347;-38
2021/12/19 10:22:32;;;;;;;17.83;2.75;;;;;;;22.44;52.02;99993.69;7311318;19;130371;-36
2021/12/19 10:25:25;;;;;;;24.05;3.60;;;;;;;22.46;52.21;99995.19;7310047;19;130604;-39
2021/12/19 10:28:00;;;;;;;30.52;4.20;;;;;;;22.41;52.79;99986.91;7308901;19;130384;-38
2021/12/19 10:30:33;;;;;;;28.55;4.15;;;;;;;22.39;52.19;99982.78;7310898;19;129184;-39
2021/12/19 10:32:59;;;;;;;28.83;4.05;;;;;;;22.40;51.91;99979.19;7312133;19;129947;-35
2021/12/19 10:35:29;;;;;;;34.50;4.87;;;;;;;22.36;51.80;99977.81;7308122;19;152278;-38
2021/12/19 10:37:54;;;;;;;35.05;4.80;;;;;;;22.37;51.88;99963.75;7310441;19;130349;-37
2021/12/19 10:40:20;;;;;;;20.73;3.55;;;;;;;22.42;51.86;99962.41;7309318;19;129631;-36
2021/12/19 10:42:53;;;;;;;29.15;4.50;;;;;;;22.43;51.43;99963.22;7308460;19;129597;-37
2021/12/19 10:45:32;;;;;;;23.45;3.30;;;;;;;22.30;51.59;99946.91;7311348;19;130096;-35
2021/12/19 10:48:28;;;;;;;20.70;3.40;;;;;;;22.40;52.74;99966.09;7310293;19;130065;-40
2021/12/19 10:51:00;;;;;;;19.08;3.05;;;;;;;22.40;51.51;99958.25;7310049;19;132043;-34
2021/12/19 10:53:37;;;;;;;20.08;3.13;;;;;;;22.34;52.22;99971.88;7309022;19;129197;-37
2021/12/19 10:56:08;;;;;;;37.95;5.20;;;;;;;22.38;52.80;99960.19;7307694;19;129439;-36
2021/12/19 10:58:44;;;;;;;22.70;3.25;;;;;;;22.42;52.61;99958.94;7310066;19;130945;-31
2021/12/19 11:01:31;;;;;;;33.13;5.10;;;;;;;22.41;52.70;99952.06;7310366;19;130019;-33
2021/12/19 11:04:13;;;;;;;35.13;5.35;;;;;;;22.40;52.29;99943.34;7309172;19;129050;-38
2021/12/19 11:06:39;;;;;;;17.40;2.72;;;;;;;22.35;51.73;99921.16;7307908;19;130282;-36
2021/12/19 11:09:09;;;;;;;20.83;3.55;;;;;;;22.44;51.59;99933.44;7307962;19;130154;-35
2021/12/19 11:11:54;;;;;;;30.85;4.68;;;;;;;22.27;52.58;99926.25;7309254;19;129748;-33
2021/12/19 11:14:32;;;;;;;29.48;4.10;;;;;;;22.30;51.43;99942.50;7309340;19;129640;-38
2021/12/19 11:17:00;;;;;;;36.95;4.78;;;;;;;22.33;50.40;99937.00;7309299;19;130198;-34
2021/12/19 11:19:27;;;;;;;14.77;2.38;;;;;;;22.28;50.28;99935.78;7309461;19;129242;-34
2021/12/19 11:21:53;;;;;;;38.00;5.00;;;;;;;22.28;50.28;99927.91;7308640;19;130904;-40
2021/12/19 11:24:21;;;;;;;18.15;2.72;;;;;;;22.28;49.94;99925.28;7310165;19;129750;-35
2021/12/19 11:26:50;;;;;;;27.33;3.75;;;;;;;22.28;50.61;99923.47;7306831;19;131101;-35
2021/12/19 11:29:16;;;;;;;26.35;3.92;;;;;;;22.27;49.67;99907.91;7306005;19;129287;-38
2021/12/19 11:31:46;;;;;;;23.63;3.45;;;;;;;22.18;50.54;99906.13;7309815;19;129139;-35
2021/12/19 11:34:19;;;;;;;27.58;4.03;;;;;;;22.20;50.60;99910.25;7308396;19;129501;-35
2021/12/19 11:36:48;;;;;;;26.08;3.90;;;;;;;22.26;50.45;99906.25;7306271;19;131244;-35
2021/12/19 11:39:14;;;;;;;23.17;3.53;;;;;;;22.27;49.80;99889.56;7309045;19;132423;-32
2021/12/19 11:42:00;;;;;;;37.13;5.03;;;;;;;22.24;51.81;99897.72;7306912;19;129401;-30
2021/12/19 11:44:31;;;;;;;29.65;3.80;;;;;;;22.30;50.92;99892.75;7310159;19;130139;-39
2021/12/19 11:46:59;;;;;;;28.13;4.40;;;;;;;22.29;49.85;99888.50;7308061;19;130619;-33
2021/12/19 11:49:27;;;;;;;22.35;3.47;;;;;;;22.27;49.96;99873.84;7308110;19;130566;-35
2021/12/19 11:52:30;;;;;;;24.38;3.45;;;;;;;22.28;51.16;99886.00;7311501;19;130496;-37
2021/12/19 11:55:14;;;;;;;29.42;4.22;;;;;;;22.18;51.22;99869.47;7308921;19;128965;-37
2021/12/19 11:57:41;;;;;;;23.08;3.38;;;;;;;22.29;50.75;99887.66;7308372;19;147438;-34
2021/12/19 12:00:29;;;;;;;16.85;3.03;;;;;;;22.22;52.17;99873.44;7309562;19;133044;-36
2021/12/19 12:03:13;;;;;;;25.45;3.70;;;;;;;22.21;51.62;99879.66;7308880;19;129169;-36
2021/12/19 12:05:47;;;;;;;31.58;4.75;;;;;;;22.22;51.10;99870.81;7305508;19;151337;-39
2021/12/19 12:08:24;;;;;;;27.42;3.95;;;;;;;22.23;51.60;99856.78;7308274;19;129207;-37